sensor_id;sensor_type;location;lat;lon;timestamp;pressure;altitude;pressure_sealevel;temperature;humidity
55191;BME280;41070;50.360;18.742;2023-03-30T00:01:58;98720.88;;;4.41;68.64
55191;BME280;41070;50.360;18.742;2023-03-30T00:05:07;98718.56;;;4.40;68.86
55191;BME280;41070;50.360;18.742;2023-03-30T00:11:19;98716.78;;;4.42;68.96
55191;BME280;41070;50.360;18.742;2023-03-30T00:14:08;98709.16;;;4.44;69.02
55191;BME280;41070;50.360;18.742;2023-03-30T00:17:15;98703.64;;;4.44;68.96
55191;BME280;41070;50.360;18.742;2023-03-30T00:20:21;98703.95;;;4.44;69.06
55191;BME280;41070;50.360;18.742;2023-03-30T00:23:29;98700.70;;;4.43;69.40
55191;BME280;41070;50.360;18.742;2023-03-30T00:26:35;98698.34;;;4.41;69.49
55191;BME280;41070;50.360;18.742;2023-03-30T00:29:41;98695.63;;;4.40;69.65
55191;BME280;41070;50.360;18.742;2023-03-30T00:32:48;98695.73;;;4.38;69.80
55191;BME280;41070;50.360;18.742;2023-03-30T00:35:56;98696.05;;;4.38;69.79
55191;BME280;41070;50.360;18.742;2023-03-30T00:39:05;98694.78;;;4.37;70.03
55191;BME280;41070;50.360;18.742;2023-03-30T00:42:36;98694.47;;;4.37;70.02
55191;BME280;41070;50.360;18.742;2023-03-30T00:52:11;98696.19;;;4.41;70.28
55191;BME280;41070;50.360;18.742;2023-03-30T00:54:56;98688.98;;;4.41;70.28
55191;BME280;41070;50.360;18.742;2023-03-30T00:58:03;98683.26;;;4.41;70.70
55191;BME280;41070;50.360;18.742;2023-03-30T01:01:10;98683.32;;;4.41;70.72
55191;BME280;41070;50.360;18.742;2023-03-30T01:04:37;98680.63;;;4.40;70.96
55191;BME280;41070;50.360;18.742;2023-03-30T01:07:26;98678.81;;;4.40;71.05
55191;BME280;41070;50.360;18.742;2023-03-30T01:10:34;98672.35;;;4.41;71.29
55191;BME280;41070;50.360;18.742;2023-03-30T01:13:42;98670.42;;;4.42;71.37
55191;BME280;41070;50.360;18.742;2023-03-30T01:16:59;98669.71;;;4.42;71.48
55191;BME280;41070;50.360;18.742;2023-03-30T01:34:00;98650.94;;;4.43;71.69
55191;BME280;41070;50.360;18.742;2023-03-30T01:43:00;98651.12;;;4.37;71.87
55191;BME280;41070;50.360;18.742;2023-03-30T01:46:19;98651.16;;;4.35;72.16
55191;BME280;41070;50.360;18.742;2023-03-30T02:02:16;98643.90;;;4.33;72.56
55191;BME280;41070;50.360;18.742;2023-03-30T02:05:23;98646.00;;;4.37;72.24
55191;BME280;41070;50.360;18.742;2023-03-30T02:08:30;98649.39;;;4.39;71.98
55191;BME280;41070;50.360;18.742;2023-03-30T02:11:36;98644.39;;;4.42;71.85
55191;BME280;41070;50.360;18.742;2023-03-30T02:14:43;98646.71;;;4.44;71.86
55191;BME280;41070;50.360;18.742;2023-03-30T02:17:50;98644.42;;;4.45;71.89
55191;BME280;41070;50.360;18.742;2023-03-30T02:20:59;98642.41;;;4.46;72.15
55191;BME280;41070;50.360;18.742;2023-03-30T02:27:31;98640.92;;;4.48;72.14
55191;BME280;41070;50.360;18.742;2023-03-30T02:31:19;98641.27;;;4.47;71.95
55191;BME280;41070;50.360;18.742;2023-03-30T03:03:50;98588.84;;;4.45;72.59
55191;BME280;41070;50.360;18.742;2023-03-30T03:06:59;98585.65;;;4.48;72.67
55191;BME280;41070;50.360;18.742;2023-03-30T03:10:05;98581.34;;;4.51;72.44
55191;BME280;41070;50.360;18.742;2023-03-30T03:13:37;98586.38;;;4.55;72.16
55191;BME280;41070;50.360;18.742;2023-03-30T03:16:28;98584.67;;;4.57;72.20
55191;BME280;41070;50.360;18.742;2023-03-30T03:19:40;98575.50;;;4.55;72.23
55191;BME280;41070;50.360;18.742;2023-03-30T03:22:47;98572.17;;;4.55;72.02
55191;BME280;41070;50.360;18.742;2023-03-30T03:25:53;98569.09;;;4.53;72.42
55191;BME280;41070;50.360;18.742;2023-03-30T03:29:00;98567.63;;;4.52;72.42
55191;BME280;41070;50.360;18.742;2023-03-30T03:32:07;98562.11;;;4.52;72.25
55191;BME280;41070;50.360;18.742;2023-03-30T03:35:14;98561.24;;;4.53;72.29
55191;BME280;41070;50.360;18.742;2023-03-30T03:38:20;98557.38;;;4.53;72.22
55191;BME280;41070;50.360;18.742;2023-03-30T03:41:31;98558.45;;;4.55;72.22
55191;BME280;41070;50.360;18.742;2023-03-30T03:45:02;98552.78;;;4.57;72.21
55191;BME280;41070;50.360;18.742;2023-03-30T03:47:26;98549.33;;;4.57;72.14
55191;BME280;41070;50.360;18.742;2023-03-30T03:50:32;98548.04;;;4.56;72.11
55191;BME280;41070;50.360;18.742;2023-03-30T03:53:39;98548.95;;;4.58;72.00
55191;BME280;41070;50.360;18.742;2023-03-30T03:56:46;98546.55;;;4.56;72.06
55191;BME280;41070;50.360;18.742;2023-03-30T03:59:55;98543.90;;;4.58;72.02
55191;BME280;41070;50.360;18.742;2023-03-30T04:03:01;98543.71;;;4.59;71.70
55191;BME280;41070;50.360;18.742;2023-03-30T04:05:50;98537.12;;;4.60;71.70
55191;BME280;41070;50.360;18.742;2023-03-30T04:08:57;98534.73;;;4.60;71.99
55191;BME280;41070;50.360;18.742;2023-03-30T04:12:03;98531.05;;;4.61;72.05
55191;BME280;41070;50.360;18.742;2023-03-30T04:15:10;98521.92;;;4.64;71.70
55191;BME280;41070;50.360;18.742;2023-03-30T04:18:17;98520.92;;;4.65;71.98
55191;BME280;41070;50.360;18.742;2023-03-30T04:21:24;98520.99;;;4.67;71.85
55191;BME280;41070;50.360;18.742;2023-03-30T04:24:31;98506.98;;;4.68;72.17
55191;BME280;41070;50.360;18.742;2023-03-30T04:27:37;98510.06;;;4.67;72.30
55191;BME280;41070;50.360;18.742;2023-03-30T04:30:44;98499.52;;;4.67;72.34
55191;BME280;41070;50.360;18.742;2023-03-30T04:33:54;98497.37;;;4.68;72.16
55191;BME280;41070;50.360;18.742;2023-03-30T04:37:24;98496.60;;;4.69;72.26
55191;BME280;41070;50.360;18.742;2023-03-30T04:40:10;98490.75;;;4.70;72.29
55191;BME280;41070;50.360;18.742;2023-03-30T04:43:40;98491.52;;;4.71;72.44
55191;BME280;41070;50.360;18.742;2023-03-30T04:46:28;98486.52;;;4.74;72.10
55191;BME280;41070;50.360;18.742;2023-03-30T04:49:34;98485.20;;;4.78;72.22
55191;BME280;41070;50.360;18.742;2023-03-30T04:52:41;98482.63;;;4.81;72.15
55191;BME280;41070;50.360;18.742;2023-03-30T04:55:49;98484.48;;;4.83;72.01
55191;BME280;41070;50.360;18.742;2023-03-30T04:58:54;98487.27;;;4.85;72.07
55191;BME280;41070;50.360;18.742;2023-03-30T05:02:02;98488.52;;;4.89;72.03
55191;BME280;41070;50.360;18.742;2023-03-30T05:05:09;98488.59;;;4.90;72.10
55191;BME280;41070;50.360;18.742;2023-03-30T05:08:16;98482.20;;;4.90;72.13
55191;BME280;41070;50.360;18.742;2023-03-30T05:11:23;98481.77;;;4.90;72.20
55191;BME280;41070;50.360;18.742;2023-03-30T05:14:32;98483.98;;;4.93;72.00
55191;BME280;41070;50.360;18.742;2023-03-30T05:17:39;98480.98;;;4.95;72.07
55191;BME280;41070;50.360;18.742;2023-03-30T05:20:46;98471.72;;;4.96;72.30
55191;BME280;41070;50.360;18.742;2023-03-30T05:23:52;98465.52;;;5.00;72.12
55191;BME280;41070;50.360;18.742;2023-03-30T05:27:24;98457.27;;;5.03;71.92
55191;BME280;41070;50.360;18.742;2023-03-30T05:30:09;98457.53;;;5.06;71.98
55191;BME280;41070;50.360;18.742;2023-03-30T05:33:16;98453.22;;;5.09;71.93
55191;BME280;41070;50.360;18.742;2023-03-30T05:36:47;98441.27;;;5.14;71.89
55191;BME280;41070;50.360;18.742;2023-03-30T05:39:39;98437.39;;;5.21;71.72
55191;BME280;41070;50.360;18.742;2023-03-30T05:42:46;98432.00;;;5.27;71.72
55191;BME280;41070;50.360;18.742;2023-03-30T05:45:53;98427.76;;;5.29;71.28
55191;BME280;41070;50.360;18.742;2023-03-30T05:49:01;98428.79;;;5.31;71.55
55191;BME280;41070;50.360;18.742;2023-03-30T05:52:08;98426.67;;;5.35;71.40
55191;BME280;41070;50.360;18.742;2023-03-30T05:55:15;98428.58;;;5.39;71.22
55191;BME280;41070;50.360;18.742;2023-03-30T05:58:22;98434.89;;;5.45;71.30
55191;BME280;41070;50.360;18.742;2023-03-30T06:01:29;98429.64;;;5.49;71.12
55191;BME280;41070;50.360;18.742;2023-03-30T06:04:35;98429.05;;;5.57;70.83
55191;BME280;41070;50.360;18.742;2023-03-30T06:07:43;98431.45;;;5.63;70.64
55191;BME280;41070;50.360;18.742;2023-03-30T06:10:52;98433.92;;;5.72;70.62
55191;BME280;41070;50.360;18.742;2023-03-30T06:13:58;98440.31;;;5.82;70.70
55191;BME280;41070;50.360;18.742;2023-03-30T06:17:04;98442.93;;;5.90;70.58
55191;BME280;41070;50.360;18.742;2023-03-30T06:20:11;98439.42;;;5.96;70.47
55191;BME280;41070;50.360;18.742;2023-03-30T06:23:18;98427.50;;;6.03;70.33
55191;BME280;41070;50.360;18.742;2023-03-30T06:26:25;98433.27;;;6.11;70.10
55191;BME280;41070;50.360;18.742;2023-03-30T06:29:32;98431.59;;;6.18;69.83
55191;BME280;41070;50.360;18.742;2023-03-30T06:32:39;98430.80;;;6.24;69.91
55191;BME280;41070;50.360;18.742;2023-03-30T06:35:46;98421.89;;;6.27;69.79
55191;BME280;41070;50.360;18.742;2023-03-30T06:38:52;98420.59;;;6.31;69.58
55191;BME280;41070;50.360;18.742;2023-03-30T06:41:59;98417.95;;;6.37;69.67
55191;BME280;41070;50.360;18.742;2023-03-30T06:45:06;98424.77;;;6.44;69.58
55191;BME280;41070;50.360;18.742;2023-03-30T06:48:13;98431.73;;;6.54;69.59
55191;BME280;41070;50.360;18.742;2023-03-30T06:54:25;98426.86;;;6.68;69.62
55191;BME280;41070;50.360;18.742;2023-03-30T06:57:32;98428.09;;;6.74;69.66
55191;BME280;41070;50.360;18.742;2023-03-30T07:00:38;98426.33;;;6.82;69.68
55191;BME280;41070;50.360;18.742;2023-03-30T07:03:45;98422.41;;;6.89;69.75
55191;BME280;41070;50.360;18.742;2023-03-30T07:06:59;98423.70;;;7.01;69.62
55191;BME280;41070;50.360;18.742;2023-03-30T07:10:30;98415.62;;;7.16;68.94
55191;BME280;41070;50.360;18.742;2023-03-30T07:13:16;98411.05;;;7.29;68.86
55191;BME280;41070;50.360;18.742;2023-03-30T07:16:23;98418.20;;;7.33;68.05
55191;BME280;41070;50.360;18.742;2023-03-30T07:19:29;98413.96;;;7.38;67.46
55191;BME280;41070;50.360;18.742;2023-03-30T07:22:36;98418.25;;;7.43;67.40
55191;BME280;41070;50.360;18.742;2023-03-30T07:25:43;98412.95;;;7.52;67.21
55191;BME280;41070;50.360;18.742;2023-03-30T07:28:49;98418.46;;;7.63;67.00
55191;BME280;41070;50.360;18.742;2023-03-30T07:31:58;98418.02;;;7.73;66.71
55191;BME280;41070;50.360;18.742;2023-03-30T07:35:05;98404.82;;;7.78;66.59
55191;BME280;41070;50.360;18.742;2023-03-30T07:38:12;98404.68;;;7.96;67.02
55191;BME280;41070;50.360;18.742;2023-03-30T07:41:18;98406.99;;;8.18;66.90
55191;BME280;41070;50.360;18.742;2023-03-30T07:44:25;98400.09;;;8.39;65.95
55191;BME280;41070;50.360;18.742;2023-03-30T07:47:35;98402.34;;;8.57;65.78
55191;BME280;41070;50.360;18.742;2023-03-30T07:50:42;98403.66;;;8.77;65.08
55191;BME280;41070;50.360;18.742;2023-03-30T07:53:48;98401.27;;;8.94;65.05
55191;BME280;41070;50.360;18.742;2023-03-30T07:57:06;98401.15;;;9.11;64.79
55191;BME280;41070;50.360;18.742;2023-03-30T08:00:13;98404.67;;;9.22;64.43
55191;BME280;41070;50.360;18.742;2023-03-30T08:03:20;98401.34;;;9.31;63.76
55191;BME280;41070;50.360;18.742;2023-03-30T08:06:36;98399.91;;;9.42;64.05
55191;BME280;41070;50.360;18.742;2023-03-30T08:09:43;98393.80;;;9.59;62.69
55191;BME280;41070;50.360;18.742;2023-03-30T08:12:51;98384.59;;;9.65;62.92
55191;BME280;41070;50.360;18.742;2023-03-30T08:15:58;98389.94;;;9.71;62.72
55191;BME280;41070;50.360;18.742;2023-03-30T08:19:04;98381.84;;;9.76;62.95
55191;BME280;41070;50.360;18.742;2023-03-30T08:22:11;98388.14;;;9.81;62.41
55191;BME280;41070;50.360;18.742;2023-03-30T08:25:17;98376.79;;;9.85;62.19
55191;BME280;41070;50.360;18.742;2023-03-30T08:28:25;98373.98;;;9.92;62.77
55191;BME280;41070;50.360;18.742;2023-03-30T08:31:31;98370.35;;;9.96;61.64
55191;BME280;41070;50.360;18.742;2023-03-30T08:34:41;98373.10;;;9.93;62.52
55191;BME280;41070;50.360;18.742;2023-03-30T08:37:48;98361.79;;;9.93;62.65
55191;BME280;41070;50.360;18.742;2023-03-30T08:40:54;98351.77;;;9.92;62.26
55191;BME280;41070;50.360;18.742;2023-03-30T08:47:53;98361.05;;;10.02;62.75
55191;BME280;41070;50.360;18.742;2023-03-30T08:50:35;98353.65;;;10.09;61.88
55191;BME280;41070;50.360;18.742;2023-03-30T08:53:42;98345.41;;;10.00;61.52
55191;BME280;41070;50.360;18.742;2023-03-30T09:11:32;98336.52;;;10.21;61.23
55191;BME280;41070;50.360;18.742;2023-03-30T09:15:30;98331.63;;;10.14;61.74
55191;BME280;41070;50.360;18.742;2023-03-30T09:23:04;98306.23;;;10.22;62.05
55191;BME280;41070;50.360;18.742;2023-03-30T09:29:05;98294.42;;;10.50;62.87
55191;BME280;41070;50.360;18.742;2023-03-30T09:32:30;98284.16;;;10.63;61.71
55191;BME280;41070;50.360;18.742;2023-03-30T09:38:39;98264.77;;;10.78;62.04
55191;BME280;41070;50.360;18.742;2023-03-30T09:48:46;98274.09;;;11.09;61.00
55191;BME280;41070;50.360;18.742;2023-03-30T10:05:14;98250.68;;;11.64;60.25
55191;BME280;41070;50.360;18.742;2023-03-30T10:11:33;98249.13;;;11.77;59.25
55191;BME280;41070;50.360;18.742;2023-03-30T10:14:23;98256.22;;;11.71;59.15
55191;BME280;41070;50.360;18.742;2023-03-30T10:17:27;98256.61;;;11.80;59.18
55191;BME280;41070;50.360;18.742;2023-03-30T10:23:45;98249.83;;;11.76;58.72
55191;BME280;41070;50.360;18.742;2023-03-30T10:26:52;98249.92;;;11.73;59.19
55191;BME280;41070;50.360;18.742;2023-03-30T10:29:58;98242.28;;;11.70;58.75
55191;BME280;41070;50.360;18.742;2023-03-30T10:33:07;98234.96;;;11.82;58.21
55191;BME280;41070;50.360;18.742;2023-03-30T10:36:15;98232.98;;;11.95;57.74
55191;BME280;41070;50.360;18.742;2023-03-30T10:42:53;98225.08;;;11.81;57.91
55191;BME280;41070;50.360;18.742;2023-03-30T11:24:36;98159.17;;;12.08;59.89
55191;BME280;41070;50.360;18.742;2023-03-30T11:27:31;98161.23;;;12.07;60.27
55191;BME280;41070;50.360;18.742;2023-03-30T11:30:41;98156.98;;;12.16;59.71
55191;BME280;41070;50.360;18.742;2023-03-30T11:37:12;98147.20;;;12.23;60.15
55191;BME280;41070;50.360;18.742;2023-03-30T11:50:51;98138.33;;;12.19;60.49
55191;BME280;41070;50.360;18.742;2023-03-30T12:22:57;98114.18;;;12.50;60.31
55191;BME280;41070;50.360;18.742;2023-03-30T12:29:50;98113.90;;;12.27;61.15
55191;BME280;41070;50.360;18.742;2023-03-30T12:57:26;98115.46;;;12.05;62.64
55191;BME280;41070;50.360;18.742;2023-03-30T13:30:44;98140.64;;;11.57;65.67
55191;BME280;41070;50.360;18.742;2023-03-30T13:33:55;98135.35;;;11.52;66.20
55191;BME280;41070;50.360;18.742;2023-03-30T13:44:12;98142.11;;;11.59;66.47
55191;BME280;41070;50.360;18.742;2023-03-30T13:50:19;98137.95;;;11.67;66.14
